sensor_id;sensor_type;location;lat;lon;timestamp;P1;durP1;ratioP1;P2;durP2;ratioP2
15858;SDS011;8029;52.202;7.308;2022-10-15T00:03:51;20.30;;;14.90;;
15858;SDS011;8029;52.202;7.308;2022-10-15T00:06:18;14.93;;;12.50;;
15858;SDS011;8029;52.202;7.308;2022-10-15T00:08:44;12.77;;;11.48;;
15858;SDS011;8029;52.202;7.308;2022-10-15T00:11:11;16.55;;;13.50;;
15858;SDS011;8029;52.202;7.308;2022-10-15T00:13:38;18.70;;;14.32;;
15858;SDS011;8029;52.202;7.308;2022-10-15T00:16:05;17.38;;;14.60;;
15858;SDS011;8029;52.202;7.308;2022-10-15T00:18:32;17.88;;;12.45;;
15858;SDS011;8029;52.202;7.308;2022-10-15T00:20:57;19.63;;;12.93;;
15858;SDS011;8029;52.202;7.308;2022-10-15T00:23:23;19.27;;;14.20;;
15858;SDS011;8029;52.202;7.308;2022-10-15T00:25:50;17.08;;;14.65;;
15858;SDS011;8029;52.202;7.308;2022-10-15T00:28:24;16.98;;;13.30;;
15858;SDS011;8029;52.202;7.308;2022-10-15T00:30:50;15.63;;;12.77;;
15858;SDS011;8029;52.202;7.308;2022-10-15T00:33:16;15.25;;;13.68;;
15858;SDS011;8029;52.202;7.308;2022-10-15T00:35:42;16.40;;;14.02;;
15858;SDS011;8029;52.202;7.308;2022-10-15T00:38:08;19.80;;;13.98;;
15858;SDS011;8029;52.202;7.308;2022-10-15T00:40:34;24.60;;;16.33;;
15858;SDS011;8029;52.202;7.308;2022-10-15T00:43:01;14.48;;;12.00;;
15858;SDS011;8029;52.202;7.308;2022-10-15T00:45:27;16.23;;;13.40;;
15858;SDS011;8029;52.202;7.308;2022-10-15T00:47:53;15.00;;;12.63;;
15858;SDS011;8029;52.202;7.308;2022-10-15T00:50:21;13.95;;;12.45;;
15858;SDS011;8029;52.202;7.308;2022-10-15T00:55:27;18.30;;;13.70;;
15858;SDS011;8029;52.202;7.308;2022-10-15T00:57:54;16.95;;;12.48;;
15858;SDS011;8029;52.202;7.308;2022-10-15T01:00:20;19.85;;;13.00;;
15858;SDS011;8029;52.202;7.308;2022-10-15T01:02:46;19.63;;;12.65;;
15858;SDS011;8029;52.202;7.308;2022-10-15T01:05:13;14.90;;;13.18;;
15858;SDS011;8029;52.202;7.308;2022-10-15T01:07:40;14.43;;;12.88;;
15858;SDS011;8029;52.202;7.308;2022-10-15T01:10:06;14.77;;;11.80;;
15858;SDS011;8029;52.202;7.308;2022-10-15T01:12:51;20.65;;;12.07;;
15858;SDS011;8029;52.202;7.308;2022-10-15T01:15:24;13.82;;;12.38;;
15858;SDS011;8029;52.202;7.308;2022-10-15T01:17:56;13.68;;;12.27;;
15858;SDS011;8029;52.202;7.308;2022-10-15T01:25:47;14.45;;;11.65;;
15858;SDS011;8029;52.202;7.308;2022-10-15T01:30:53;14.48;;;12.13;;
15858;SDS011;8029;52.202;7.308;2022-10-15T01:33:25;13.32;;;11.27;;
15858;SDS011;8029;52.202;7.308;2022-10-15T01:35:53;17.42;;;13.30;;
15858;SDS011;8029;52.202;7.308;2022-10-15T01:38:26;14.25;;;12.77;;
15858;SDS011;8029;52.202;7.308;2022-10-15T01:40:59;14.30;;;11.80;;
15858;SDS011;8029;52.202;7.308;2022-10-15T01:46:00;14.55;;;12.68;;
15858;SDS011;8029;52.202;7.308;2022-10-15T01:48:28;14.98;;;12.57;;
15858;SDS011;8029;52.202;7.308;2022-10-15T01:50:57;15.05;;;12.25;;
15858;SDS011;8029;52.202;7.308;2022-10-15T01:53:25;15.80;;;12.43;;
15858;SDS011;8029;52.202;7.308;2022-10-15T01:55:55;14.40;;;12.27;;
15858;SDS011;8029;52.202;7.308;2022-10-15T01:58:22;21.33;;;11.70;;
15858;SDS011;8029;52.202;7.308;2022-10-15T02:00:50;14.85;;;13.35;;
15858;SDS011;8029;52.202;7.308;2022-10-15T02:03:16;12.85;;;11.35;;
15858;SDS011;8029;52.202;7.308;2022-10-15T02:08:34;17.15;;;13.27;;
15858;SDS011;8029;52.202;7.308;2022-10-15T02:11:04;15.00;;;12.20;;
15858;SDS011;8029;52.202;7.308;2022-10-15T02:16:05;24.85;;;14.10;;
15858;SDS011;8029;52.202;7.308;2022-10-15T02:18:48;15.80;;;12.07;;
15858;SDS011;8029;52.202;7.308;2022-10-15T02:21:16;15.38;;;12.43;;
15858;SDS011;8029;52.202;7.308;2022-10-15T02:23:53;18.40;;;12.63;;
15858;SDS011;8029;52.202;7.308;2022-10-15T02:26:21;15.70;;;10.95;;
15858;SDS011;8029;52.202;7.308;2022-10-15T02:28:51;14.15;;;11.18;;
15858;SDS011;8029;52.202;7.308;2022-10-15T02:31:18;14.40;;;12.88;;
15858;SDS011;8029;52.202;7.308;2022-10-15T02:33:45;15.82;;;12.18;;
15858;SDS011;8029;52.202;7.308;2022-10-15T02:36:12;17.70;;;13.63;;
15858;SDS011;8029;52.202;7.308;2022-10-15T02:38:39;18.40;;;11.73;;
15858;SDS011;8029;52.202;7.308;2022-10-15T02:41:06;22.60;;;11.63;;
15858;SDS011;8029;52.202;7.308;2022-10-15T02:43:33;14.75;;;10.73;;
15858;SDS011;8029;52.202;7.308;2022-10-15T02:46:00;17.85;;;11.68;;
15858;SDS011;8029;52.202;7.308;2022-10-15T02:48:25;15.88;;;11.68;;
15858;SDS011;8029;52.202;7.308;2022-10-15T02:50:53;21.83;;;13.80;;
15858;SDS011;8029;52.202;7.308;2022-10-15T02:53:18;14.98;;;12.20;;
15858;SDS011;8029;52.202;7.308;2022-10-15T02:55:44;13.63;;;11.07;;
15858;SDS011;8029;52.202;7.308;2022-10-15T02:58:11;20.33;;;12.45;;
15858;SDS011;8029;52.202;7.308;2022-10-15T03:00:37;16.73;;;12.45;;
15858;SDS011;8029;52.202;7.308;2022-10-15T03:03:03;16.08;;;13.05;;
15858;SDS011;8029;52.202;7.308;2022-10-15T03:05:29;21.17;;;13.07;;
15858;SDS011;8029;52.202;7.308;2022-10-15T03:07:55;16.17;;;12.93;;
15858;SDS011;8029;52.202;7.308;2022-10-15T03:10:21;15.95;;;12.48;;
15858;SDS011;8029;52.202;7.308;2022-10-15T03:12:48;16.08;;;14.15;;
15858;SDS011;8029;52.202;7.308;2022-10-15T03:15:14;16.70;;;12.63;;
15858;SDS011;8029;52.202;7.308;2022-10-15T03:17:40;12.38;;;10.98;;
15858;SDS011;8029;52.202;7.308;2022-10-15T03:20:06;22.75;;;14.43;;
15858;SDS011;8029;52.202;7.308;2022-10-15T03:22:32;19.63;;;12.63;;
15858;SDS011;8029;52.202;7.308;2022-10-15T03:24:58;12.60;;;11.32;;
15858;SDS011;8029;52.202;7.308;2022-10-15T03:27:23;15.05;;;12.90;;
15858;SDS011;8029;52.202;7.308;2022-10-15T03:29:49;16.10;;;12.93;;
15858;SDS011;8029;52.202;7.308;2022-10-15T03:32:15;14.95;;;12.75;;
15858;SDS011;8029;52.202;7.308;2022-10-15T03:34:41;16.55;;;13.23;;
15858;SDS011;8029;52.202;7.308;2022-10-15T03:37:07;13.68;;;12.27;;
15858;SDS011;8029;52.202;7.308;2022-10-15T03:39:33;14.82;;;12.73;;
15858;SDS011;8029;52.202;7.308;2022-10-15T03:42:00;13.85;;;11.88;;
15858;SDS011;8029;52.202;7.308;2022-10-15T03:44:26;15.10;;;13.15;;
15858;SDS011;8029;52.202;7.308;2022-10-15T03:46:52;18.25;;;13.30;;
15858;SDS011;8029;52.202;7.308;2022-10-15T03:49:18;14.68;;;12.68;;
15858;SDS011;8029;52.202;7.308;2022-10-15T03:51:44;17.52;;;13.15;;
15858;SDS011;8029;52.202;7.308;2022-10-15T03:54:09;17.13;;;13.13;;
15858;SDS011;8029;52.202;7.308;2022-10-15T03:56:35;14.98;;;12.20;;
15858;SDS011;8029;52.202;7.308;2022-10-15T03:59:01;22.40;;;11.05;;
15858;SDS011;8029;52.202;7.308;2022-10-15T04:01:27;14.88;;;11.88;;
15858;SDS011;8029;52.202;7.308;2022-10-15T04:03:53;14.23;;;12.30;;
15858;SDS011;8029;52.202;7.308;2022-10-15T04:06:19;13.13;;;11.80;;
15858;SDS011;8029;52.202;7.308;2022-10-15T04:08:45;14.50;;;12.27;;
15858;SDS011;8029;52.202;7.308;2022-10-15T04:11:11;14.70;;;11.82;;
15858;SDS011;8029;52.202;7.308;2022-10-15T04:13:37;18.88;;;11.93;;
15858;SDS011;8029;52.202;7.308;2022-10-15T04:16:03;14.70;;;11.93;;
15858;SDS011;8029;52.202;7.308;2022-10-15T04:18:30;16.45;;;13.50;;
15858;SDS011;8029;52.202;7.308;2022-10-15T04:20:59;17.38;;;12.98;;
15858;SDS011;8029;52.202;7.308;2022-10-15T04:23:26;15.25;;;12.18;;
15858;SDS011;8029;52.202;7.308;2022-10-15T04:25:52;20.33;;;15.35;;
15858;SDS011;8029;52.202;7.308;2022-10-15T04:28:18;14.63;;;13.10;;
15858;SDS011;8029;52.202;7.308;2022-10-15T04:30:44;16.98;;;13.77;;
15858;SDS011;8029;52.202;7.308;2022-10-15T04:33:10;16.30;;;13.55;;
15858;SDS011;8029;52.202;7.308;2022-10-15T04:35:36;14.05;;;12.60;;
15858;SDS011;8029;52.202;7.308;2022-10-15T04:38:02;17.95;;;12.18;;
15858;SDS011;8029;52.202;7.308;2022-10-15T04:40:28;18.45;;;13.77;;
15858;SDS011;8029;52.202;7.308;2022-10-15T04:42:54;16.50;;;13.10;;
15858;SDS011;8029;52.202;7.308;2022-10-15T04:45:20;13.75;;;11.32;;
15858;SDS011;8029;52.202;7.308;2022-10-15T04:47:45;14.20;;;12.70;;
15858;SDS011;8029;52.202;7.308;2022-10-15T04:50:13;18.27;;;14.95;;
15858;SDS011;8029;52.202;7.308;2022-10-15T04:52:39;14.13;;;12.65;;
15858;SDS011;8029;52.202;7.308;2022-10-15T04:55:05;23.10;;;13.27;;
15858;SDS011;8029;52.202;7.308;2022-10-15T04:57:31;16.20;;;13.70;;
15858;SDS011;8029;52.202;7.308;2022-10-15T04:59:57;19.40;;;12.10;;
15858;SDS011;8029;52.202;7.308;2022-10-15T05:02:23;15.30;;;13.15;;
15858;SDS011;8029;52.202;7.308;2022-10-15T05:04:49;20.25;;;13.80;;
15858;SDS011;8029;52.202;7.308;2022-10-15T05:07:15;15.65;;;12.85;;
15858;SDS011;8029;52.202;7.308;2022-10-15T05:09:41;17.17;;;14.20;;
15858;SDS011;8029;52.202;7.308;2022-10-15T05:12:07;22.45;;;15.15;;
15858;SDS011;8029;52.202;7.308;2022-10-15T05:14:33;17.33;;;13.98;;
15858;SDS011;8029;52.202;7.308;2022-10-15T05:17:00;16.13;;;12.85;;
15858;SDS011;8029;52.202;7.308;2022-10-15T05:19:27;14.18;;;11.85;;
15858;SDS011;8029;52.202;7.308;2022-10-15T05:21:53;16.23;;;12.18;;
15858;SDS011;8029;52.202;7.308;2022-10-15T05:24:19;14.90;;;12.20;;
15858;SDS011;8029;52.202;7.308;2022-10-15T05:26:45;18.02;;;14.02;;
15858;SDS011;8029;52.202;7.308;2022-10-15T05:29:11;15.23;;;13.30;;
15858;SDS011;8029;52.202;7.308;2022-10-15T05:31:37;18.75;;;13.23;;
15858;SDS011;8029;52.202;7.308;2022-10-15T05:34:06;18.70;;;12.80;;
15858;SDS011;8029;52.202;7.308;2022-10-15T05:36:33;16.67;;;12.88;;
15858;SDS011;8029;52.202;7.308;2022-10-15T05:39:01;16.77;;;14.18;;
15858;SDS011;8029;52.202;7.308;2022-10-15T05:41:27;18.48;;;14.95;;
15858;SDS011;8029;52.202;7.308;2022-10-15T05:43:55;20.55;;;12.90;;
15858;SDS011;8029;52.202;7.308;2022-10-15T05:46:21;20.88;;;15.13;;
15858;SDS011;8029;52.202;7.308;2022-10-15T05:48:48;13.68;;;12.27;;
15858;SDS011;8029;52.202;7.308;2022-10-15T05:51:14;13.77;;;12.35;;
15858;SDS011;8029;52.202;7.308;2022-10-15T05:53:40;14.48;;;12.68;;
15858;SDS011;8029;52.202;7.308;2022-10-15T05:56:07;16.83;;;13.68;;
15858;SDS011;8029;52.202;7.308;2022-10-15T05:58:34;18.67;;;14.25;;
15858;SDS011;8029;52.202;7.308;2022-10-15T06:01:02;19.67;;;13.25;;
15858;SDS011;8029;52.202;7.308;2022-10-15T06:03:28;16.63;;;12.48;;
15858;SDS011;8029;52.202;7.308;2022-10-15T06:05:54;17.20;;;14.48;;
15858;SDS011;8029;52.202;7.308;2022-10-15T06:08:21;17.48;;;13.10;;
15858;SDS011;8029;52.202;7.308;2022-10-15T06:10:47;12.73;;;11.40;;
15858;SDS011;8029;52.202;7.308;2022-10-15T06:13:15;13.73;;;11.68;;
15858;SDS011;8029;52.202;7.308;2022-10-15T06:15:42;14.18;;;12.45;;
15858;SDS011;8029;52.202;7.308;2022-10-15T06:18:09;13.70;;;11.88;;
15858;SDS011;8029;52.202;7.308;2022-10-15T06:20:35;14.07;;;10.95;;
15858;SDS011;8029;52.202;7.308;2022-10-15T06:23:02;16.33;;;13.05;;
15858;SDS011;8029;52.202;7.308;2022-10-15T06:25:28;13.50;;;12.05;;
15858;SDS011;8029;52.202;7.308;2022-10-15T06:27:54;14.18;;;11.27;;
15858;SDS011;8029;52.202;7.308;2022-10-15T06:30:20;17.27;;;12.40;;
15858;SDS011;8029;52.202;7.308;2022-10-15T06:32:47;12.73;;;11.32;;
15858;SDS011;8029;52.202;7.308;2022-10-15T06:35:14;18.15;;;13.02;;
15858;SDS011;8029;52.202;7.308;2022-10-15T06:37:40;16.15;;;12.10;;
15858;SDS011;8029;52.202;7.308;2022-10-15T06:40:06;15.93;;;11.65;;
15858;SDS011;8029;52.202;7.308;2022-10-15T06:42:32;14.77;;;11.07;;
15858;SDS011;8029;52.202;7.308;2022-10-15T06:44:58;13.38;;;11.15;;
15858;SDS011;8029;52.202;7.308;2022-10-15T06:47:24;14.15;;;11.60;;
15858;SDS011;8029;52.202;7.308;2022-10-15T06:49:50;12.65;;;10.68;;
15858;SDS011;8029;52.202;7.308;2022-10-15T06:52:16;12.95;;;11.55;;
15858;SDS011;8029;52.202;7.308;2022-10-15T06:54:49;12.57;;;11.02;;
15858;SDS011;8029;52.202;7.308;2022-10-15T06:57:15;12.57;;;10.05;;
15858;SDS011;8029;52.202;7.308;2022-10-15T06:59:42;14.35;;;12.63;;
15858;SDS011;8029;52.202;7.308;2022-10-15T07:02:09;15.48;;;11.43;;
15858;SDS011;8029;52.202;7.308;2022-10-15T07:04:35;16.80;;;12.13;;
15858;SDS011;8029;52.202;7.308;2022-10-15T07:07:01;13.00;;;11.80;;
15858;SDS011;8029;52.202;7.308;2022-10-15T07:09:27;13.88;;;12.38;;
15858;SDS011;8029;52.202;7.308;2022-10-15T07:11:53;13.75;;;10.50;;
15858;SDS011;8029;52.202;7.308;2022-10-15T07:14:19;11.45;;;10.02;;
15858;SDS011;8029;52.202;7.308;2022-10-15T07:16:45;15.85;;;12.45;;
15858;SDS011;8029;52.202;7.308;2022-10-15T07:19:11;15.05;;;11.32;;
15858;SDS011;8029;52.202;7.308;2022-10-15T07:21:37;12.50;;;11.25;;
15858;SDS011;8029;52.202;7.308;2022-10-15T07:24:03;15.18;;;12.88;;
15858;SDS011;8029;52.202;7.308;2022-10-15T07:26:29;17.48;;;13.80;;
15858;SDS011;8029;52.202;7.308;2022-10-15T07:28:55;19.05;;;13.80;;
15858;SDS011;8029;52.202;7.308;2022-10-15T07:31:21;19.27;;;13.07;;
15858;SDS011;8029;52.202;7.308;2022-10-15T07:33:47;13.65;;;12.23;;
15858;SDS011;8029;52.202;7.308;2022-10-15T07:36:13;19.67;;;14.25;;
15858;SDS011;8029;52.202;7.308;2022-10-15T07:38:40;15.68;;;12.48;;
15858;SDS011;8029;52.202;7.308;2022-10-15T07:41:06;14.77;;;13.35;;
15858;SDS011;8029;52.202;7.308;2022-10-15T07:43:33;15.77;;;13.25;;
15858;SDS011;8029;52.202;7.308;2022-10-15T07:45:59;16.10;;;14.18;;
15858;SDS011;8029;52.202;7.308;2022-10-15T07:48:25;18.58;;;15.48;;
15858;SDS011;8029;52.202;7.308;2022-10-15T07:50:58;22.17;;;13.75;;
15858;SDS011;8029;52.202;7.308;2022-10-15T07:53:24;18.98;;;14.70;;
15858;SDS011;8029;52.202;7.308;2022-10-15T07:55:50;17.23;;;15.43;;
15858;SDS011;8029;52.202;7.308;2022-10-15T07:58:16;20.00;;;15.63;;
15858;SDS011;8029;52.202;7.308;2022-10-15T08:00:43;18.52;;;15.05;;
15858;SDS011;8029;52.202;7.308;2022-10-15T08:03:09;24.25;;;19.38;;
15858;SDS011;8029;52.202;7.308;2022-10-15T08:05:36;18.30;;;16.10;;
15858;SDS011;8029;52.202;7.308;2022-10-15T08:08:02;20.00;;;16.77;;
15858;SDS011;8029;52.202;7.308;2022-10-15T08:10:28;21.15;;;16.52;;
15858;SDS011;8029;52.202;7.308;2022-10-15T08:12:54;19.05;;;17.05;;
15858;SDS011;8029;52.202;7.308;2022-10-15T08:15:20;21.48;;;17.73;;
15858;SDS011;8029;52.202;7.308;2022-10-15T08:17:46;21.60;;;15.68;;
15858;SDS011;8029;52.202;7.308;2022-10-15T08:20:12;20.90;;;16.55;;
15858;SDS011;8029;52.202;7.308;2022-10-15T08:22:38;20.25;;;16.80;;
15858;SDS011;8029;52.202;7.308;2022-10-15T08:25:04;21.02;;;16.70;;
15858;SDS011;8029;52.202;7.308;2022-10-15T08:27:30;16.88;;;15.18;;
15858;SDS011;8029;52.202;7.308;2022-10-15T08:29:56;24.85;;;15.82;;
15858;SDS011;8029;52.202;7.308;2022-10-15T08:32:22;16.85;;;14.93;;
15858;SDS011;8029;52.202;7.308;2022-10-15T08:34:48;18.73;;;16.02;;
15858;SDS011;8029;52.202;7.308;2022-10-15T08:37:14;20.88;;;18.20;;
15858;SDS011;8029;52.202;7.308;2022-10-15T08:39:40;17.85;;;15.55;;
15858;SDS011;8029;52.202;7.308;2022-10-15T08:42:17;22.08;;;14.93;;
15858;SDS011;8029;52.202;7.308;2022-10-15T08:44:49;21.63;;;16.10;;
15858;SDS011;8029;52.202;7.308;2022-10-15T08:52:19;31.17;;;17.13;;
15858;SDS011;8029;52.202;7.308;2022-10-15T08:54:49;20.63;;;14.57;;
15858;SDS011;8029;52.202;7.308;2022-10-15T08:59:55;17.27;;;15.05;;
15858;SDS011;8029;52.202;7.308;2022-10-15T09:02:28;16.42;;;14.50;;
15858;SDS011;8029;52.202;7.308;2022-10-15T09:07:29;17.92;;;15.95;;
15858;SDS011;8029;52.202;7.308;2022-10-15T09:10:15;17.05;;;13.77;;
15858;SDS011;8029;52.202;7.308;2022-10-15T09:12:45;17.60;;;14.15;;
15858;SDS011;8029;52.202;7.308;2022-10-15T09:15:13;18.80;;;14.15;;
15858;SDS011;8029;52.202;7.308;2022-10-15T09:17:39;15.18;;;13.68;;
15858;SDS011;8029;52.202;7.308;2022-10-15T09:20:06;19.55;;;15.30;;
15858;SDS011;8029;52.202;7.308;2022-10-15T09:22:38;14.77;;;12.18;;
15858;SDS011;8029;52.202;7.308;2022-10-15T09:25:14;18.10;;;13.27;;
15858;SDS011;8029;52.202;7.308;2022-10-15T09:27:40;12.68;;;11.30;;
15858;SDS011;8029;52.202;7.308;2022-10-15T09:32:54;15.77;;;12.82;;
15858;SDS011;8029;52.202;7.308;2022-10-15T09:35:23;18.77;;;11.50;;
15858;SDS011;8029;52.202;7.308;2022-10-15T09:43:02;14.85;;;12.38;;
15858;SDS011;8029;52.202;7.308;2022-10-15T09:45:29;21.67;;;14.43;;
15858;SDS011;8029;52.202;7.308;2022-10-15T09:47:57;16.67;;;14.40;;
15858;SDS011;8029;52.202;7.308;2022-10-15T09:50:29;22.15;;;15.00;;
15858;SDS011;8029;52.202;7.308;2022-10-15T09:55:53;14.80;;;13.30;;
15858;SDS011;8029;52.202;7.308;2022-10-15T09:58:22;23.50;;;17.40;;
15858;SDS011;8029;52.202;7.308;2022-10-15T10:03:15;19.58;;;15.48;;
15858;SDS011;8029;52.202;7.308;2022-10-15T10:05:41;24.58;;;16.50;;
15858;SDS011;8029;52.202;7.308;2022-10-15T10:08:15;18.00;;;13.65;;
15858;SDS011;8029;52.202;7.308;2022-10-15T10:10:52;16.08;;;13.40;;
15858;SDS011;8029;52.202;7.308;2022-10-15T10:13:25;17.33;;;12.98;;
15858;SDS011;8029;52.202;7.308;2022-10-15T10:15:53;14.65;;;12.35;;
15858;SDS011;8029;52.202;7.308;2022-10-15T10:18:23;13.95;;;12.25;;
15858;SDS011;8029;52.202;7.308;2022-10-15T10:23:22;12.85;;;11.10;;
15858;SDS011;8029;52.202;7.308;2022-10-15T10:25:49;9.57;;;8.57;;
15858;SDS011;8029;52.202;7.308;2022-10-15T10:28:20;12.93;;;10.15;;
15858;SDS011;8029;52.202;7.308;2022-10-15T10:33:26;15.93;;;7.57;;
15858;SDS011;8029;52.202;7.308;2022-10-15T10:35:52;11.23;;;7.72;;
15858;SDS011;8029;52.202;7.308;2022-10-15T10:38:18;7.38;;;6.68;;
15858;SDS011;8029;52.202;7.308;2022-10-15T10:40:48;10.43;;;7.13;;
15858;SDS011;8029;52.202;7.308;2022-10-15T10:53:38;5.88;;;5.05;;
15858;SDS011;8029;52.202;7.308;2022-10-15T10:56:07;7.55;;;5.60;;
15858;SDS011;8029;52.202;7.308;2022-10-15T10:58:35;6.25;;;5.22;;
15858;SDS011;8029;52.202;7.308;2022-10-15T11:01:01;10.20;;;5.43;;
15858;SDS011;8029;52.202;7.308;2022-10-15T11:03:34;7.60;;;4.53;;
15858;SDS011;8029;52.202;7.308;2022-10-15T11:09:22;5.55;;;4.20;;
15858;SDS011;8029;52.202;7.308;2022-10-15T11:14:14;4.28;;;3.88;;
15858;SDS011;8029;52.202;7.308;2022-10-15T11:17:04;4.22;;;3.78;;
15858;SDS011;8029;52.202;7.308;2022-10-15T11:19:44;3.25;;;2.92;;
15858;SDS011;8029;52.202;7.308;2022-10-15T11:22:15;3.45;;;3.15;;
15858;SDS011;8029;52.202;7.308;2022-10-15T11:24:55;3.80;;;3.13;;
15858;SDS011;8029;52.202;7.308;2022-10-15T11:35:30;3.17;;;2.60;;
15858;SDS011;8029;52.202;7.308;2022-10-15T11:38:21;3.55;;;2.53;;
15858;SDS011;8029;52.202;7.308;2022-10-15T11:46:04;3.65;;;2.58;;
15858;SDS011;8029;52.202;7.308;2022-10-15T11:51:33;2.60;;;2.40;;
15858;SDS011;8029;52.202;7.308;2022-10-15T11:56:35;2.95;;;2.05;;
15858;SDS011;8029;52.202;7.308;2022-10-15T12:04:38;2.88;;;2.38;;
15858;SDS011;8029;52.202;7.308;2022-10-15T12:07:06;3.08;;;2.28;;
15858;SDS011;8029;52.202;7.308;2022-10-15T12:09:34;2.55;;;2.08;;
15858;SDS011;8029;52.202;7.308;2022-10-15T12:12:15;1.40;;;1.35;;
15858;SDS011;8029;52.202;7.308;2022-10-15T12:14:48;3.60;;;2.35;;
15858;SDS011;8029;52.202;7.308;2022-10-15T12:22:36;3.63;;;2.78;;
15858;SDS011;8029;52.202;7.308;2022-10-15T12:25:03;3.28;;;2.97;;
15858;SDS011;8029;52.202;7.308;2022-10-15T12:27:31;2.53;;;2.33;;
15858;SDS011;8029;52.202;7.308;2022-10-15T12:32:35;2.42;;;2.20;;
15858;SDS011;8029;52.202;7.308;2022-10-15T12:35:03;2.80;;;1.65;;
15858;SDS011;8029;52.202;7.308;2022-10-15T12:37:31;1.83;;;1.67;;
15858;SDS011;8029;52.202;7.308;2022-10-15T12:40:03;1.52;;;1.45;;
15858;SDS011;8029;52.202;7.308;2022-10-15T12:42:30;1.27;;;1.17;;
15858;SDS011;8029;52.202;7.308;2022-10-15T12:44:58;1.10;;;1.05;;
15858;SDS011;8029;52.202;7.308;2022-10-15T12:47:46;4.13;;;2.95;;
15858;SDS011;8029;52.202;7.308;2022-10-15T12:50:21;4.68;;;2.65;;
15858;SDS011;8029;52.202;7.308;2022-10-15T12:55:19;1.17;;;1.17;;
15858;SDS011;8029;52.202;7.308;2022-10-15T13:02:41;1.45;;;1.30;;
15858;SDS011;8029;52.202;7.308;2022-10-15T13:05:22;1.20;;;1.10;;
15858;SDS011;8029;52.202;7.308;2022-10-15T13:07:48;1.25;;;1.17;;
15858;SDS011;8029;52.202;7.308;2022-10-15T13:10:17;1.25;;;1.15;;
15858;SDS011;8029;52.202;7.308;2022-10-15T13:12:47;1.13;;;1.13;;
15858;SDS011;8029;52.202;7.308;2022-10-15T13:15:15;1.38;;;1.20;;
15858;SDS011;8029;52.202;7.308;2022-10-15T13:17:44;0.75;;;0.75;;
15858;SDS011;8029;52.202;7.308;2022-10-15T13:22:48;1.13;;;1.13;;
15858;SDS011;8029;52.202;7.308;2022-10-15T13:25:15;1.67;;;1.00;;
15858;SDS011;8029;52.202;7.308;2022-10-15T13:27:42;0.70;;;0.70;;
15858;SDS011;8029;52.202;7.308;2022-10-15T13:32:50;0.80;;;0.80;;
15858;SDS011;8029;52.202;7.308;2022-10-15T13:35:17;0.70;;;0.70;;
15858;SDS011;8029;52.202;7.308;2022-10-15T13:37:44;2.92;;;2.63;;
15858;SDS011;8029;52.202;7.308;2022-10-15T13:40:22;1.30;;;1.20;;
15858;SDS011;8029;52.202;7.308;2022-10-15T13:42:59;0.98;;;0.98;;
15858;SDS011;8029;52.202;7.308;2022-10-15T13:45:25;0.60;;;0.60;;
15858;SDS011;8029;52.202;7.308;2022-10-15T13:47:51;1.42;;;1.15;;
15858;SDS011;8029;52.202;7.308;2022-10-15T13:50:20;1.15;;;1.15;;
15858;SDS011;8029;52.202;7.308;2022-10-15T13:55:32;1.67;;;1.20;;
15858;SDS011;8029;52.202;7.308;2022-10-15T14:03:27;1.35;;;1.35;;
15858;SDS011;8029;52.202;7.308;2022-10-15T14:05:55;1.30;;;1.20;;
15858;SDS011;8029;52.202;7.308;2022-10-15T14:10:47;1.70;;;1.60;;
15858;SDS011;8029;52.202;7.308;2022-10-15T14:13:14;1.38;;;1.35;;
15858;SDS011;8029;52.202;7.308;2022-10-15T14:15:47;1.23;;;1.15;;
15858;SDS011;8029;52.202;7.308;2022-10-15T14:18:16;1.17;;;1.17;;
15858;SDS011;8029;52.202;7.308;2022-10-15T14:20:43;2.88;;;1.77;;
15858;SDS011;8029;52.202;7.308;2022-10-15T14:23:14;1.45;;;1.35;;
15858;SDS011;8029;52.202;7.308;2022-10-15T14:25:40;2.42;;;1.58;;
15858;SDS011;8029;52.202;7.308;2022-10-15T14:28:14;1.88;;;1.55;;
15858;SDS011;8029;52.202;7.308;2022-10-15T14:30:40;1.55;;;1.45;;
15858;SDS011;8029;52.202;7.308;2022-10-15T14:33:28;1.75;;;1.65;;
15858;SDS011;8029;52.202;7.308;2022-10-15T14:38:33;2.13;;;1.48;;
15858;SDS011;8029;52.202;7.308;2022-10-15T14:41:00;1.95;;;1.73;;
15858;SDS011;8029;52.202;7.308;2022-10-15T14:43:34;1.25;;;1.25;;
15858;SDS011;8029;52.202;7.308;2022-10-15T14:46:01;2.97;;;1.15;;
15858;SDS011;8029;52.202;7.308;2022-10-15T14:48:34;2.83;;;2.03;;
15858;SDS011;8029;52.202;7.308;2022-10-15T14:51:05;1.60;;;1.50;;
15858;SDS011;8029;52.202;7.308;2022-10-15T14:53:32;1.05;;;0.95;;
15858;SDS011;8029;52.202;7.308;2022-10-15T14:56:02;0.90;;;0.90;;
15858;SDS011;8029;52.202;7.308;2022-10-15T14:58:28;1.40;;;1.33;;
15858;SDS011;8029;52.202;7.308;2022-10-15T15:00:57;1.35;;;1.25;;
15858;SDS011;8029;52.202;7.308;2022-10-15T15:03:45;2.00;;;1.50;;
15858;SDS011;8029;52.202;7.308;2022-10-15T15:06:09;1.17;;;1.17;;
15858;SDS011;8029;52.202;7.308;2022-10-15T15:08:36;1.52;;;1.42;;
15858;SDS011;8029;52.202;7.308;2022-10-15T15:11:02;1.48;;;1.38;;
15858;SDS011;8029;52.202;7.308;2022-10-15T15:13:31;1.70;;;1.58;;
15858;SDS011;8029;52.202;7.308;2022-10-15T15:16:02;1.80;;;1.70;;
15858;SDS011;8029;52.202;7.308;2022-10-15T15:18:28;1.63;;;1.52;;
15858;SDS011;8029;52.202;7.308;2022-10-15T15:20:55;2.03;;;1.85;;
15858;SDS011;8029;52.202;7.308;2022-10-15T15:23:23;2.17;;;1.40;;
15858;SDS011;8029;52.202;7.308;2022-10-15T15:25:50;1.48;;;1.38;;
15858;SDS011;8029;52.202;7.308;2022-10-15T15:28:20;3.47;;;1.73;;
15858;SDS011;8029;52.202;7.308;2022-10-15T15:30:53;1.60;;;1.50;;
15858;SDS011;8029;52.202;7.308;2022-10-15T15:33:19;1.63;;;1.52;;
15858;SDS011;8029;52.202;7.308;2022-10-15T15:35:52;1.13;;;1.13;;
15858;SDS011;8029;52.202;7.308;2022-10-15T15:38:19;1.38;;;1.38;;
15858;SDS011;8029;52.202;7.308;2022-10-15T15:40:45;2.22;;;1.95;;
15858;SDS011;8029;52.202;7.308;2022-10-15T15:43:12;0.93;;;0.93;;
15858;SDS011;8029;52.202;7.308;2022-10-15T15:45:38;1.25;;;1.25;;
15858;SDS011;8029;52.202;7.308;2022-10-15T15:48:05;1.08;;;1.08;;
15858;SDS011;8029;52.202;7.308;2022-10-15T15:50:31;1.55;;;1.45;;
15858;SDS011;8029;52.202;7.308;2022-10-15T15:52:57;1.10;;;1.08;;
15858;SDS011;8029;52.202;7.308;2022-10-15T15:55:24;1.52;;;1.42;;
15858;SDS011;8029;52.202;7.308;2022-10-15T15:57:50;1.33;;;1.30;;
15858;SDS011;8029;52.202;7.308;2022-10-15T16:00:16;1.00;;;0.95;;
15858;SDS011;8029;52.202;7.308;2022-10-15T16:02:42;1.20;;;1.10;;
15858;SDS011;8029;52.202;7.308;2022-10-15T16:05:10;9.40;;;2.17;;
15858;SDS011;8029;52.202;7.308;2022-10-15T16:07:38;1.85;;;1.73;;
15858;SDS011;8029;52.202;7.308;2022-10-15T16:10:04;1.98;;;1.60;;
15858;SDS011;8029;52.202;7.308;2022-10-15T16:12:33;1.95;;;1.85;;
15858;SDS011;8029;52.202;7.308;2022-10-15T16:14:59;1.58;;;1.48;;
15858;SDS011;8029;52.202;7.308;2022-10-15T16:17:25;3.42;;;2.33;;
15858;SDS011;8029;52.202;7.308;2022-10-15T16:19:51;2.88;;;2.53;;
15858;SDS011;8029;52.202;7.308;2022-10-15T16:22:17;1.60;;;1.50;;
15858;SDS011;8029;52.202;7.308;2022-10-15T16:24:43;1.48;;;1.38;;
15858;SDS011;8029;52.202;7.308;2022-10-15T16:27:09;2.08;;;1.80;;
15858;SDS011;8029;52.202;7.308;2022-10-15T16:29:36;2.97;;;2.28;;
15858;SDS011;8029;52.202;7.308;2022-10-15T16:32:02;1.98;;;1.88;;
15858;SDS011;8029;52.202;7.308;2022-10-15T16:34:28;2.33;;;2.13;;
15858;SDS011;8029;52.202;7.308;2022-10-15T16:36:54;1.45;;;1.35;;
15858;SDS011;8029;52.202;7.308;2022-10-15T16:39:20;1.25;;;1.13;;
15858;SDS011;8029;52.202;7.308;2022-10-15T16:41:46;1.50;;;1.40;;
15858;SDS011;8029;52.202;7.308;2022-10-15T16:44:12;1.60;;;1.50;;
15858;SDS011;8029;52.202;7.308;2022-10-15T16:46:38;2.13;;;1.63;;
15858;SDS011;8029;52.202;7.308;2022-10-15T16:49:04;2.05;;;1.67;;
15858;SDS011;8029;52.202;7.308;2022-10-15T16:51:30;2.05;;;1.13;;